PWSweather.com
Personal Weather Stations
Station Observations
PWSLORIS
The Farm At Fox Bay, Loris, SC 29569

The Farm At Fox BayLoris, SC 29569

Lat: 34.067097, Lon: -78.86907

Elevation: 108

Station Type: Davis Vantage Pro2 with 24 hr. FARS and solar

http://www.lorisweather.com

Latest ConditionsUpdated 7:30:01 AM EST Wednesday, Nov 26, 2014
Currently Today's Max Today's Min Today's Average
Temperature 53.7°F12.1°C 62.5°F16.9°C 53.7°F12.1°C 58.5°F14.7°C
Dew Point 52.9°F11.6°C 61.9°F16.6°C 52.9°F11.6°C 57.8°F14.3°C
Winds 8.3 mph NW13.4 kmh NW 8.3 mph NW13.4 kmh NW - 2.6 mph 4.2 kmh
Wind Gusts 13.0 mph20.9 kmh 13.0 mph20.9 kmh - -
Humidity 97% 98% 97% 98%
Pressure 29.80 in1009.1 mb 29.92 in1013.2 mb 29.74 in1007.1 mb -
Precipitation - 0.07 in1.8 mm - -
Hour Temp Dew Point Humidity Winds Wind Gusts Pressure Precip Precip Rate Daily Precip Total
07:30 AM 53.7°F12.1°C 52.9°F11.6°C 97% 8.3 mph NW13.4 kmh NW 13.0 mph20.9 kmh 29.80 in1009.1 mb 0.00 in0.0 mm 0.00 in/hr0.0 mm/hr 0.07 in1.8 mm
07:15 AM 54.0°F12.2°C 53.2°F11.8°C 97% 5.8 mph NW9.3 kmh NW 11.0 mph17.7 kmh 29.79 in1008.8 mb 0.00 in0.0 mm 0.00 in/hr0.0 mm/hr 0.07 in1.8 mm
07:00 AM 54.1°F12.3°C 53.3°F11.8°C 97% 6.7 mph NNW10.8 kmh NNW 10.0 mph16.1 kmh 29.79 in1008.8 mb 0.01 in0.3 mm 0.01 in/hr0.3 mm/hr 0.07 in1.8 mm
06:45 AM 54.1°F12.3°C 53.3°F11.8°C 97% 5.4 mph NW8.7 kmh NW 9.0 mph14.5 kmh 29.77 in1008.1 mb 0.00 in0.0 mm 0.00 in/hr0.0 mm/hr 0.06 in1.5 mm
06:30 AM 54.2°F12.3°C 53.4°F11.9°C 97% 5.2 mph N8.4 kmh N 8.0 mph12.9 kmh 29.76 in1007.8 mb 0.00 in0.0 mm 0.00 in/hr0.0 mm/hr 0.06 in1.5 mm
06:15 AM 54.2°F12.3°C 53.4°F11.9°C 97% 6.0 mph NNW9.7 kmh NNW 10.0 mph16.1 kmh 29.77 in1008.1 mb 0.01 in0.3 mm 0.04 in/hr1.0 mm/hr 0.06 in1.5 mm
06:00 AM 54.2°F12.3°C 53.4°F11.9°C 97% 4.3 mph N6.9 kmh N 8.0 mph12.9 kmh 29.76 in1007.8 mb 0.00 in0.0 mm 0.00 in/hr0.0 mm/hr 0.05 in1.3 mm
05:45 AM 54.4°F12.4°C 53.6°F12.0°C 97% 2.4 mph NNE3.9 kmh NNE 9.0 mph14.5 kmh 29.76 in1007.8 mb 0.00 in0.0 mm 0.00 in/hr0.0 mm/hr 0.05 in1.3 mm
05:30 AM 54.5°F12.5°C 53.7°F12.1°C 97% 2.8 mph NNW4.5 kmh NNW 6.0 mph9.7 kmh 29.76 in1007.8 mb 0.01 in0.3 mm 0.04 in/hr1.0 mm/hr 0.05 in1.3 mm
05:15 AM 55.0°F12.8°C 54.2°F12.3°C 97% 1.6 mph NW2.6 kmh NW 6.0 mph9.7 kmh 29.77 in1008.1 mb 0.01 in0.3 mm 0.04 in/hr1.0 mm/hr 0.05 in1.3 mm
05:00 AM 55.7°F13.2°C 54.9°F12.7°C 97% 2.8 mph NW4.5 kmh NW 8.0 mph12.9 kmh 29.76 in1007.8 mb 0.00 in0.0 mm 0.00 in/hr0.0 mm/hr 0.04 in1.0 mm
04:45 AM 57.5°F14.2°C 57.0°F13.9°C 98% 0.8 mph NW1.3 kmh NW 5.0 mph8.0 kmh 29.76 in1007.8 mb 0.03 in0.8 mm 0.12 in/hr3.0 mm/hr 0.04 in1.0 mm
04:30 AM 59.0°F15.0°C 58.4°F14.7°C 98% 2.3 mph NNW3.7 kmh NNW 4.0 mph6.4 kmh 29.75 in1007.5 mb 0.00 in0.0 mm 0.00 in/hr0.0 mm/hr 0.01 in0.3 mm
04:15 AM 60.5°F15.8°C 60.0°F15.6°C 98% 0.1 mph N0.2 kmh N 1.0 mph1.6 kmh 29.74 in1007.1 mb 0.00 in0.0 mm 0.00 in/hr0.0 mm/hr 0.01 in0.3 mm
04:00 AM 60.0°F15.6°C 59.4°F15.2°C 98% 4.1 mph NNW6.6 kmh NNW 8.0 mph12.9 kmh 29.78 in1008.5 mb 0.00 in0.0 mm 0.00 in/hr0.0 mm/hr 0.01 in0.3 mm
03:45 AM 60.0°F15.6°C 59.4°F15.2°C 98% 0.2 mph NNE0.3 kmh NNE -- 29.76 in1007.8 mb 0.00 in0.0 mm 0.00 in/hr0.0 mm/hr 0.01 in0.3 mm
03:30 AM 60.3°F15.7°C 59.7°F15.4°C 98% 5.5 mph N8.9 kmh N 9.0 mph14.5 kmh 29.76 in1007.8 mb 0.00 in0.0 mm 0.00 in/hr0.0 mm/hr 0.01 in0.3 mm
03:15 AM 60.5°F15.8°C 59.9°F15.5°C 98% Calm Calm -- 29.78 in1008.5 mb 0.00 in0.0 mm 0.00 in/hr0.0 mm/hr 0.01 in0.3 mm
03:00 AM 60.7°F15.9°C 60.1°F15.6°C 98% Calm Calm -- 29.79 in1008.8 mb 0.01 in0.3 mm 0.01 in/hr0.3 mm/hr 0.01 in0.3 mm
02:45 AM 60.6°F15.9°C 60.0°F15.6°C 98% Calm Calm 1.0 mph1.6 kmh 29.79 in1008.8 mb 0.00 in0.0 mm 0.00 in/hr0.0 mm/hr 0.02 in0.5 mm
02:30 AM 60.6°F15.9°C 60.0°F15.6°C 98% 1.3 mph ENE2.1 kmh ENE 4.0 mph6.4 kmh 29.80 in1009.1 mb 0.00 in0.0 mm 0.00 in/hr0.0 mm/hr 0.02 in0.5 mm
02:15 AM 60.7°F15.9°C 60.1°F15.6°C 98% 1.7 mph ENE2.7 kmh ENE 7.0 mph11.3 kmh 29.80 in1009.1 mb 0.00 in0.0 mm 0.00 in/hr0.0 mm/hr 0.02 in0.5 mm
02:00 AM 60.7°F15.9°C 59.8°F15.4°C 97% 2.9 mph ENE4.7 kmh ENE 7.0 mph11.3 kmh 29.81 in1009.5 mb 0.00 in0.0 mm 0.00 in/hr0.0 mm/hr 0.02 in0.5 mm
01:45 AM 60.9°F16.1°C 60.3°F15.7°C 98% 4.1 mph E6.6 kmh E 8.0 mph12.9 kmh 29.82 in1009.8 mb 0.00 in0.0 mm 0.00 in/hr0.0 mm/hr 0.02 in0.5 mm
01:30 AM 61.1°F16.2°C 60.5°F15.8°C 98% Calm Calm -- 29.83 in1010.2 mb 0.00 in0.0 mm 0.00 in/hr0.0 mm/hr 0.02 in0.5 mm
01:15 AM 61.2°F16.2°C 60.3°F15.7°C 97% 0.9 mph ENE1.4 kmh ENE 5.0 mph8.0 kmh 29.83 in1010.2 mb 0.00 in0.0 mm 0.00 in/hr0.0 mm/hr 0.02 in0.5 mm
01:00 AM 61.4°F16.3°C 60.9°F16.1°C 98% 1.4 mph NE2.3 kmh NE 4.0 mph6.4 kmh 29.85 in1010.8 mb 0.00 in0.0 mm 0.00 in/hr0.0 mm/hr 0.02 in0.5 mm
12:45 AM 62.1°F16.7°C 61.5°F16.4°C 98% 3.1 mph NE5.0 kmh NE 8.0 mph12.9 kmh 29.86 in1011.2 mb 0.00 in0.0 mm 0.00 in/hr0.0 mm/hr 0.02 in0.5 mm
12:30 AM 62.3°F16.8°C 61.7°F16.5°C 98% 0.5 mph NE0.8 kmh NE 5.0 mph8.0 kmh 29.88 in1011.9 mb 0.00 in0.0 mm 0.00 in/hr0.0 mm/hr 0.02 in0.5 mm
12:15 AM 62.4°F16.9°C 61.8°F16.6°C 98% 0.4 mph ENE0.6 kmh ENE 2.0 mph3.2 kmh 29.89 in1012.2 mb 0.00 in0.0 mm 0.00 in/hr0.0 mm/hr 0.02 in0.5 mm
12:00 AM 62.5°F16.9°C 61.9°F16.6°C 98% 0.8 mph NE1.3 kmh NE 3.0 mph4.8 kmh 29.92 in1013.2 mb 0.02 in0.5 mm 0.00 in/hr0.0 mm/hr 0.02 in0.5 mm